AirNav   Everest Fuels
 
 865 users online  

38D Salem Airpark Inc
Salem, Ohio, USA

GOING TO SALEM?


FAA INFORMATION EFFECTIVE 08 OCTOBER 2020

Location

FAA Identifier: 38D
Lat/Long: 40-56-53.0910N 080-51-43.4950W
40-56.884850N 080-51.724917W
40.9480808,-80.8620819
(estimated)
Elevation: 1162 ft. / 354 m (estimated)
Variation: 07W (1985)
From city: 3 miles N of SALEM, OH
Time zone: UTC -4 (UTC -5 during Standard Time)
Zip code: 44460

Airport Operations

Airport use: Open to the public
Activation date: 10/1952
Control tower: no
ARTCC: CLEVELAND CENTER
FSS: CLEVELAND FLIGHT SERVICE STATION
NOTAMs facility: CLE (NOTAM-D service available)
Attendance: UNATNDD
Wind indicator: yes
Segmented circle: no
Lights: ACTVT NSTD LIRL RWY 10L/28R - CTAF.
Landing fee: yes

Airport Communications

CTAF/UNICOM: 122.7
CLEVELAND APPROACH: 125.5
CLEVELAND DEPARTURE: 125.5
  • APCH/DEP SVC PRVDD BY CLEVELAND APCH (CLE) 0600-0000. APCH/DEP SVC PRVDD BY CLEVELAND ARTCC (ZOB) ON FREQS 120.775/298.95 (CHARDON RCAG) 0000-0600.

Nearby radio navigation aids

VOR radial/distance  VOR name  Freq  Var
ACOr126/18.1AKRON VOR/DME114.4004W
YNGr205/24.5YOUNGSTOWN VORTAC109.0005W
BSVr068/28.7BRIGGS VOR/DME112.4004W
EWCr292/30.4ELLWOOD CITY VOR/DME115.8008W
CXRr163/36.7CHARDON VOR/DME112.7005W

 
NDB name  Hdg/Dist  Freq  Var  ID
CASTLE266/20.727209WUCP ..- -.-. .--.

Airport Services

Fuel available: 100LL
Parking: hangars and tiedowns
Airframe service: NONE
Powerplant service: NONE
Bottled oxygen: NONE
Bulk oxygen: NONE

Runway Information

Runway 10L/28R

Dimensions: 3404 x 50 ft. / 1038 x 15 m
Surface: asphalt, in fair condition
Weight bearing capacity: 
Single wheel: 8.0, ALL PAVEMENT RSTRD ACFT MAX GWT LESS THAN 8000 LBS.
Runway edge lights: non-standard
NSTD LIRL DUE TO LAYOUT & COLORS; 2829 FT LGTD.
Runway edge markings: NSTD DUE TO YELLOW DTHR.
RUNWAY 10L  RUNWAY 28R
Latitude: 40-56.894333N40-56.893833N
Longitude: 080-52.132000W080-51.392500W
Elevation: 1153.0 ft.1162.0 ft.
Traffic pattern: leftleft
Runway heading: 097 magnetic, 090 true277 magnetic, 270 true
Displaced threshold: no266 ft.
Markings: NSTD, in fair conditionNSTD, in fair condition
Touchdown point: yes, no lightsyes, no lights
Obstructions: 22 ft. trees, 322 ft. from runway, 120 ft. left of centerline, 5:1 slope to clear45 ft. hill, 950 ft. from runway, 16:1 slope to clear
+18 FT ROAD, 80 FT DIST, ACRS APCH, 19:1 TO DTHR.

Runway 10R/28L

Dimensions: 2550 x 60 ft. / 777 x 18 m
Surface: turf, in good condition
Runway edge markings: RWY END NOT MKD.
RUNWAY 10R  RUNWAY 28L
Latitude: 40-56.872500N40-56.872500N
Longitude: 080-51.952000W080-51.398167W
Elevation: 1153.0 ft.1162.0 ft.
Traffic pattern: leftleft
Runway heading: 097 magnetic, 090 true277 magnetic, 270 true
Touchdown point: yes, no lightsyes, no lights
Obstructions: 85 ft. trees, 15 ft. from runway, 45 ft. right of centerline
ALSO 35 FT UNMKD/UNLGTD POLE, 83 FT DIST, 47 FT L.
17 ft. road, 60 ft. left of centerline

Airport Ownership and Management from official FAA records

Ownership: Privately-owned
Owner: MICHAEL PIDGEON
11718 SALEM WARREN RD
SALEM, OH 44460-9667
Phone 330-332-4400
Manager: MICHAEL PIDGEON
11718 SALEM WARREN RD
SALEM, OH 44460-9667
Phone 330-402-1136
SALEMAIRPARK@YAHOO.COM.

Airport Operational Statistics

Aircraft based on the field: 66
Single engine airplanes: 66
    
Aircraft operations: avg 107/week *
96% local general aviation
4% transient general aviation
* for 12-month period ending 24 July 2020

Additional Remarks

DRAG STRIP 3500 FT SE LOOKS LIKE ARPT.
FOR CD CTC CLEVELAND APCH AT 216-352-2323, WHEN APCH CLSD CTC CLEVELAND ARTCC AT 440-774-0223.
DEER, BIRDS, & WILDLIFE ON & INVOF ARPT.
RWY 10R/28L: CTC AMGR FOR RSCD PRIOR TO USE; TWY CONNECTOR AT E END UNUSBL DUE TO PAVEMENT HEAVE; UNMKD DITCH ON N SIDE.
RWY 10L/28R: ONLY 2829 FT AVBL FOR NGT OPS.
RWY 28R: ACFT ON TURN FM DNWND TO B MAY BE OBSC BY TREES IN APCH.

Instrument Procedures

NOTE: All procedures below are presented as PDF files. If you need a reader for these files, you should download the free Adobe Reader.

NOT FOR NAVIGATION. Please procure official charts for flight.
FAA instrument procedures published for use from 08 October 2020 at 0901Z to 05 November 2020 at 0900Z.

 
IAPs - Instrument Approach Procedures
VOR OR GPS-A **CHANGED**   download (186KB)
NOTE: Special Take-Off Minimums/Departure Procedures apply   download (276KB)

Other nearby airports with instrument procedures:

3G6 - Tri-City Airport (7 nm W)
4G4 - Youngstown Elser Metro Airport (8 nm E)
02G - Columbiana County Airport (19 nm SE)
KYNG - Youngstown-Warren Regional Airport (21 nm NE)
KUCP - New Castle Municipal Airport (21 nm E)
 
Loc | Ops | Rwys | IFR | FBO | Links
Com | Nav | Svcs | Stats | Notes
Area around 38D (Salem Airpark Inc)
 
Road maps at: MapQuest Bing Google
 
Aerial photo
WARNING: Photo may not be current or correct
Aerial photo of 38D (Salem Airpark Inc)
Photo by Brad Smith
Photo taken 04-May-2008

Do you have a better or more recent aerial photo of Salem Airpark Inc that you would like to share? If so, please send us your photo.

 
Sectional chart

 
Airport distance calculator
Flying to Salem Airpark Inc? Find the distance to fly.

From to 38D

Sunrise and sunset
Times for 24-Oct-2020
 Local
(UTC-4)
 Zulu
(UTC)
Morning civil twilight07:1911:19
Sunrise07:4711:47
Sunset18:2822:28
Evening civil twilight18:5622:56

Current date and time
Zulu (UTC)  24-Oct-2020 04:20:38
Local (UTC-4)  24-Oct-2020 00:20:38
 
METAR
KYNG 
20nm NE 
240351Z 26006KT 9SM -RA FEW005 SCT015 OVC110 18/16 A2993 RMK AO2 SLP128 P0038 T01780161 $
KUCP 
21nm E 
240356Z AUTO 00000KT 10SM -RA OVC100 17/16 A2994 RMK AO2 LTG DSNT SE TSE0257 SLP147 T01670161
KPOV 
24nm NW 
240355Z AUTO 32015G27KT 10SM SCT006 BKN018 OVC025 16/14 A2995 RMK AO2 P0005 T01640138 PWINO
KBVI 
24nm SE 
240355Z AUTO 25005KT 10SM RA SCT040 BKN070 OVC110 18/16 A2994 RMK AO2 T01810157
KCAK 
27nm W 
240351Z 28005KT 10SM SCT085 OVC110 17/16 A2994 RMK AO2 RAE02 SLP131 P0000 T01720156
KAKR 
28nm W 
240403Z AUTO 32021G28KT 8SM -RA SQ FEW007 BKN015 OVC044 18/15 A2995 RMK AO2 PK WND 32028/0401 RAB01 PRESRR P0000 T01780150
KPJC 
33nm E 
240355Z AUTO 00000KT 7SM RA SCT038 BKN050 OVC065 17/16 A2994 RMK AO2 P0006
KPIT 
38nm SE 
240351Z 31013G19KT 3SM -RA SCT045 BKN060 OVC120 19/14 A2994 RMK AO2 LTG DSNT NE RAB40 SLP138 P0000 T01890144
KPHD 
38nm SW 
240353Z AUTO 00000KT 10SM FEW039 BKN065 OVC100 17/17 A2995 RMK AO2 RAE37 SLP137 P0001 T01720172
TAF
KYNG 
20nm NE 
231734Z 2318/2418 21012G20KT P6SM SCT050 FM240000 24011KT P6SM -SHRA BKN035 TEMPO 2400/2402 VRB30G45KT 5SM TSRA SCT005 OVC025CB FM240400 28012KT P6SM -SHRA SCT005 OVC025 FM240600 32011KT P6SM SCT005 OVC015 FM241700 36010KT P6SM BKN025
KBVI 
24nm SE 
240208Z 2402/2424 20006KT P6SM OVC050 TEMPO 2402/2405 3SM -TSRA BKN030CB FM240500 30010G20KT P6SM -SHRA OVC015 FM241000 33010KT P6SM OVC010 FM241800 34007KT P6SM BKN025 FM242200 34006KT P6SM SCT060
NOTAMs
Click for the latest NOTAMs
NOTAMs are issued by the DoD/FAA and will open in a separate window not controlled by AirNav.

 

 
 

FBO, Fuel Providers, and Aircraft Ground Support

  
 Business Name 
 
 Contact 
 
 Services / Description 
 
Fuel Prices
 
Comments
  
Salem Air Park 330-332-4400
no information available

If you are affiliated with Salem Air Park and would like to show here your services, contact info, web link, logo, and more, click here
100LL
AS $5.16 
 Updated 21-Oct-2020
 
   1 read write
AS=Assisted/Self Service
Update Fuel Prices
 

Would you like to see your business listed on this page?

 If your business provides an interesting product or service to pilots, flight crews, aircraft, or users of the Salem Airpark Inc, you should consider listing it here.  To start the listing process, click on the button below
 
Add a business
 

Other Pages about Salem Airpark Inc

Update a link
 
Copyright © AirNav, LLC. All rights reserved. Privacy Policy  Contact